Tiempo atmosférico en la estación meteorológica de El Maíllo, Salamanca (1027 m.)



Fecha
DESCASC
Temp. máxima en grados centígrados (hora)
DESCASC
Temp. mínima en grados centígrados (hora)
DESCASC
Temp. media en grados centígrados
DESCASC
Racha de viento máxima en m/sg (hora)
DESCASC
Velocidad máxima media en intervalos de 10 minutos(hora)
DESCASC
Precipitaciones diarias en mm
DESCASC
Precipitaciones de 00:00 a 06:00 en mm
DESCASC
Precipitaciones de 06:00 a 12:00 en mm
DESCASC
Precipitaciones de 12:00 a 18:00 en mm
DESCASC
Precipitaciones de 18:00 a 24:00 en mm
DESCASC
23-06-2019 25.3 (16:40) 11.3 (06:20) 18.3 12.5 (11:30) 7.22 (11:10) 0 0 0 0 0
22-06-2019 26.5 (18:30) 12.3 (05:20) 19.4 12.22 (18:00) 6.94 (11:40) 0 0 0 0 0
21-06-2019 23.2 (17:50) 10.6 (03:10) 16.9 7.5 (15:50) 3.89 (11:30) 0 0 0 0 0
20-06-2019 22.8 (17:10) 11.7 (00:00) 17.2 8.06 (21:20) 5.28 (21:00) 0 0 0 0 0
19-06-2019 -- (--) -- (--) -- -- (--) -- (--) -- 0 0 -- 0
18-06-2019 20.2 (14:10) 14.8 (00:00) 17.5 14.44 (11:10) 8.89 (13:30) 0 0 0 0 0
17-06-2019 23.6 (16:30) 10.3 (00:00) 17 12.22 (12:30) 6.67 (13:40) 0 0 0 0 0
16-06-2019 24.6 (18:10) 6.8 (00:00) 15.7 8.61 (10:30) 5.28 (11:40) 0 0 0 0 0
15-06-2019 20.7 (18:10) 4.2 (00:00) 12.5 7.5 (17:40) 3.89 (19:30) 0 0 0 0 0
14-06-2019 16.9 (17:00) 4.4 (00:00) 10.6 10.28 (12:10) 6.94 (12:30) 0 0 0 0 0
13-06-2019 21.1 (17:40) 3.2 (00:00) 12.2 11.94 (17:30) 5.83 (19:00) 0 0 0 0 0
12-06-2019 21 (17:40) 5.3 (00:00) 13.2 14.72 (16:30) 5.83 (19:00) 0 0 0 0 0
11-06-2019 17.6 (18:10) 6.6 (00:00) 12.1 13.06 (15:00) 7.78 (15:00) 0 0 0 0 0
10-06-2019 19.9 (17:40) 4.7 (00:00) 12.3 8.61 (18:50) 5.28 (21:10) 0 0 0 0 0
09-06-2019 19.3 (16:40) 5.3 (00:00) 12.3 10.56 (16:40) 6.67 (19:10) 0 0 0 0 0
08-06-2019 21.9 (17:30) 3.5 (00:00) 12.7 8.89 (13:10) 5.83 (13:20) 0 0 0 0 0
07-06-2019 15.4 (19:20) 4.7 (00:00) 10 9.44 (06:10) 6.11 (06:00) 0.2 0.2 0 0 0
06-06-2019 16.6 (18:00) 1.9 (00:00) 9.3 20.28 (19:00) 12.22 (19:00) 6.2 0 0 0 6.2
05-06-2019 15.4 (16:40) 5 (00:00) 10.2 11.67 (16:50) 8.06 (16:50) 0 0 0 0 0
04-06-2019 20.2 (16:10) 10.1 (00:00) 15.2 11.94 (16:30) 7.78 (16:30) 0 0 0 0 0
03-06-2019 27.2 (17:50) 10.8 (00:00) 19 12.5 (16:10) 7.78 (18:20) 0 0 0 0 0
02-06-2019 28.5 (16:20) 13.6 (00:00) 21.1 13.89 (12:50) 6.94 (16:20) 0 0 0 0 0
01-06-2019 29.7 (17:10) 13.5 (00:00) 21.6 9.44 (14:40) 5.56 (06:10) 0 0 0 0 0
31-05-2019 28.6 (18:30) 13.4 (00:00) 21 9.44 (02:30) 6.67 (02:30) 0 0 0 0 0
30-05-2019 26.9 (17:10) 14.2 (00:00) 20.5 9.72 (17:00) 6.67 (01:00) 0 0 0 0 0
29-05-2019 22.6 (17:40) 8.9 (00:00) 15.8 12.22 (09:20) 8.33 (08:30) 0 0 0 0 0
28-05-2019 21.9 (18:20) 7.9 (00:00) 14.9 10.56 (13:50) 6.67 (12:10) 0 0 0 0 0
27-05-2019 23.6 (17:50) 10 (00:00) 16.8 8.89 (15:30) 5.28 (20:10) 0 0 0 0 0
26-05-2019 23.8 (18:00) 9.5 (00:00) 16.6 10.83 (14:40) 6.39 (08:50) 0 0 0 0 0
25-05-2019 20.3 (18:00) 7 (00:00) 13.6 13.61 (09:30) 9.17 (09:40) 0 0 0 0 0

Gráficas

Temp. máximas Temp. mínimas Temp. medias Precipitaciones Rachas de viento máximas Velocidades máximas media en intervalos de 10 minutos

Datos horarios

Fecha y hora oficial Temperatura (ºC) Velocidad del viento (km/h) Dirección del viento Racha (km/h) Dirección de racha Precipitación (mm) Presión (hPa) Tendencia (hPa) Humedad (%)
2019-06-23 23:00:00 16.9 7 Sur 10 Sudoeste 0 -- -- 65
2019-06-23 22:00:00 19.4 0 Calma 14 Oeste 0 -- -- 57
2019-06-23 21:00:00 21.2 9 Oeste 23 Sudoeste 0 -- -- 52
2019-06-23 20:00:00 22.8 16 Sur 27 Sur 0 -- -- 28
2019-06-23 19:00:00 23.7 10 Sur 32 Sur 0 -- -- 31
2019-06-23 18:00:00 24.1 15 Sudoeste 28 Sudoeste 0 -- -- 32
2019-06-23 17:00:00 24.5 16 Sudoeste 36 Sur 0 -- -- 32
2019-06-23 16:00:00 23.2 19 Sur 31 Sudoeste 0 -- -- 34
2019-06-23 15:00:00 23.5 19 Sur 37 Sur 0 -- -- 34
2019-06-23 14:00:00 22.6 16 Sur 40 Sur 0 -- -- 34
2019-06-23 13:00:00 22.2 18 Sur 39 Sudoeste 0 -- -- 33
2019-06-23 12:00:00 20.6 18 Sur 45 Sur 0 -- -- 34
2019-06-23 11:00:00 20 22 Sur 44 Sur 0 -- -- 33
2019-06-23 10:00:00 19.6 22 Sur 39 Sudeste 0 -- -- 31
2019-06-23 09:00:00 19.9 17 Sur 40 Sur 0 -- -- 30
2019-06-23 08:00:00 15.3 5 Sudoeste 23 Este 0 -- -- 39
2019-06-23 07:00:00 12.4 17 Este 23 Este 0 -- -- 63
2019-06-23 06:00:00 11.5 6 Nordeste 9 Noroeste 0 -- -- 66
2019-06-23 05:00:00 12.8 5 Oeste 12 Noroeste 0 -- -- 58
2019-06-23 04:00:00 14.8 5 Sudoeste 13 Oeste 0 -- -- 43
2019-06-23 03:00:00 17.3 5 Sudoeste 13 Sudoeste 0 -- -- 32
2019-06-23 02:00:00 14.5 5 Este 9 Sudeste 0 -- -- 41
2019-06-23 01:00:00 14.2 8 Sudeste 14 Sudoeste 0 -- -- 42
2019-06-23 00:00:00 17.3 12 Sur 17 Sudoeste 0 -- -- 32
2019-06-22 23:00:00 18.3 12 Sudoeste 17 Sudoeste 0 -- -- 31
2019-06-22 22:00:00 20.4 11 Sudoeste 25 Sudoeste 0 -- -- 28
2019-06-22 21:00:00 23.7 17 Sudoeste 28 Sudoeste 0 -- -- 25
2019-06-22 20:00:00 25.5 17 Sur 34 Sur 0 -- -- 24
2019-06-22 19:00:00 25.4 19 Sur 36 Sudeste 0 -- -- 25
2019-06-22 18:00:00 26 22 Sur 44 Sur 0 -- -- 25
2019-06-22 17:00:00 25.7 21 Sur 40 Sur 0 -- -- 30
2019-06-22 16:00:00 25.5 21 Sur 37 Sur 0 -- -- 31
2019-06-22 15:00:00 24.4 21 Sur 41 Sur 0 -- -- 35
2019-06-22 14:00:00 23.7 21 Sur 38 Sur 0 -- -- 37
2019-06-22 13:00:00 23.1 24 Sur 43 Sur 0 -- -- 39
2019-06-22 12:00:00 23.2 18 Sur 40 Sudoeste 0 -- -- 39
2019-06-22 11:00:00 22.4 17 Sur 43 Sudoeste 0 -- -- 40
2019-06-22 10:00:00 21.9 12 Sur 26 Sudeste 0 -- -- 42
2019-06-22 09:00:00 20.6 18 Sudeste 31 Sudeste 0 -- -- 43
2019-06-22 08:00:00 16.5 13 Sudeste 22 Sudeste 0 -- -- 54
2019-06-22 07:00:00 16.1 15 Sudeste 19 Sudeste 0 -- -- 53
2019-06-22 06:00:00 12.4 8 Sudeste 15 Sudeste 0 -- -- 67
2019-06-22 05:00:00 12.7 10 Sudeste 14 Sudeste 0 -- -- 65
2019-06-22 04:00:00 15.2 13 Este 27 Este 0 -- -- 55
2019-06-22 03:00:00 16.2 17 Este 26 Este 0 -- -- 53
2019-06-22 02:00:00 16.2 18 Este 29 Este 0 -- -- 53
2019-06-22 01:00:00 15.8 13 Este 16 Este 0 -- -- 54
2019-06-22 00:00:00 16.2 10 Este 15 Este 0 -- -- 53
2019-06-21 23:00:00 13.5 8 Sudeste 11 Sudeste 0 -- -- 61
2019-06-21 22:00:00 18.9 5 Nordeste 14 Norte 0 -- -- 46
2019-06-21 21:00:00 21.9 7 Norte 19 Norte 0 -- -- 38
2019-06-21 20:00:00 22.7 7 Norte 20 Norte 0 -- -- 37
2019-06-21 19:00:00 22.6 6 Norte 22 Noroeste 0 -- -- 36
2019-06-21 18:00:00 23.1 10 Norte 22 Este 0 -- -- 37
2019-06-21 17:00:00 21.9 12 Nordeste 23 Nordeste 0 -- -- 39
2019-06-21 16:00:00 21.4 12 Norte 27 Nordeste 0 -- -- 43
2019-06-21 15:00:00 20.6 10 Norte 26 Nordeste 0 -- -- 48
2019-06-21 14:00:00 18.9 12 Nordeste 23 Nordeste 0 -- -- 53
2019-06-21 13:00:00 17.6 11 Nordeste 23 Este 0 -- -- 62
2019-06-21 12:00:00 15.5 12 Nordeste 22 Nordeste 0 -- -- 72
2019-06-21 11:00:00 14.2 10 Nordeste 20 Nordeste 0 -- -- 78
2019-06-21 10:00:00 12.2 12 Nordeste 19 Nordeste 0 -- -- 88
2019-06-21 09:00:00 11.7 9 Nordeste 14 Nordeste 0 -- -- 94
2019-06-21 08:00:00 11.1 9 Nordeste 14 Este 0 -- -- 96
2019-06-21 07:00:00 11.4 7 Nordeste 10 Nordeste 0 -- -- 95
2019-06-21 06:00:00 11.9 5 Norte 10 Norte 0 -- -- 93
2019-06-21 05:00:00 12.1 8 Este 16 Este 0 -- -- 91
2019-06-21 04:00:00 11.8 5 Este 9 Sur 0 -- -- 91
2019-06-21 03:00:00 10.7 4 Sudoeste 11 Sudoeste 0 -- -- 88
2019-06-21 02:00:00 11.8 8 Sudoeste 12 Sudoeste 0 -- -- 87
2019-06-21 01:00:00 13.1 7 Sudoeste 13 Sudoeste 0 -- -- 84
2019-06-21 00:00:00 14 11 Oeste 16 Oeste 0 -- -- 82
2019-06-20 23:00:00 14.8 11 Sudoeste 21 Sudoeste 0 -- -- 79
2019-06-20 22:00:00 16.1 10 Sudoeste 29 Oeste 0 -- -- 74
2019-06-20 21:00:00 18.4 19 Oeste 27 Oeste 0 -- -- 65
2019-06-20 20:00:00 18.6 12 Oeste 25 Oeste 0 -- -- 62
2019-06-20 19:00:00 20 15 Oeste 26 Noroeste 0 -- -- 53
2019-06-20 18:00:00 20 15 Noroeste 26 Sudoeste 0 -- -- 54
2019-06-20 17:00:00 22.4 12 Sur 28 Sur 0 -- -- 45
2019-06-20 16:00:00 22 14 Sudoeste 24 Sur 0 -- -- 46
2019-06-20 15:00:00 21.1 9 Sur 24 Sudoeste 0 -- -- 50
2019-06-20 14:00:00 19.8 9 Sudoeste 23 Oeste 0 -- -- 54
2019-06-20 13:00:00 19.5 6 Sudoeste 18 Oeste 0 -- -- 55
2019-06-20 12:00:00 18.4 3 Oeste 12 Sudoeste 0 -- -- 59
2019-06-20 11:00:00 17.7 7 Este 25 Este 0 -- -- 61
2019-06-20 10:00:00 16.8 17 Este 25 Este 0 -- -- 64
2019-06-20 09:00:00 14.7 10 Nordeste 19 Nordeste 0 -- -- 72
2019-06-20 08:00:00 12.8 9 Este 14 Este 0 -- -- 82
2019-06-20 07:00:00 12 9 Este 15 Este 0 -- -- 86
2019-06-20 06:00:00 11.9 8 Este 11 Este 0 -- -- 90
2019-06-20 05:00:00 12.9 4 Este 6 Este 0 -- -- 88
2019-06-20 04:00:00 13.5 0 Calma 5 Noroeste 0 -- -- 88
2019-06-20 03:00:00 13.6 3 Sudoeste 7 Sudoeste 0 -- -- 88
2019-06-20 02:00:00 13.4 4 Sudoeste 10 Oeste 0 -- -- 88
2019-06-20 01:00:00 13.7 5 Sudoeste 8 Oeste 0 -- -- 83
2019-06-20 00:00:00 14.6 4 Sudoeste 8 Oeste 0 -- -- 79
2019-06-19 23:00:00 16 6 Oeste 13 Noroeste 0 -- -- 74
2019-06-19 22:00:00 17 6 Sur 13 Sudoeste 0 -- -- 65
2019-06-19 21:00:00 18.6 9 Sudoeste 28 Sudoeste 0 -- -- 58
2019-06-19 20:00:00 19.2 19 Sudoeste 33 Oeste 0 -- -- 55
2019-06-19 19:00:00 20.9 16 Sudoeste 29 Oeste 0 -- -- 51
2019-06-19 18:00:00 19.4 14 Sur 28 Sudoeste 0 -- -- 55
2019-06-19 17:00:00 20.3 17 Sur 30 Sudoeste 0 -- -- 52
2019-06-19 16:00:00 19.2 17 Sur -- -- -- -- -- 55
2019-06-19 15:00:00 19 15 Sur -- -- -- -- -- 58
2019-06-19 14:00:00 18.9 15 Sur 27 Sudoeste 0 -- -- 58
2019-06-19 13:00:00 17.8 12 Sudoeste 23 Sur 0 -- -- 60
2019-06-19 12:00:00 16.8 13 Sudoeste 26 Sur 0 -- -- 66
2019-06-19 11:00:00 16.9 18 Sudoeste 32 Sudoeste 0 -- -- 64
2019-06-19 10:00:00 15 13 Sur 26 Sudoeste 0 -- -- 74
2019-06-19 09:00:00 13.8 17 Sudoeste 27 Sudoeste 0 -- -- 81
2019-06-19 08:00:00 13.8 14 Sudoeste 26 Sur 0 -- -- 80
2019-06-19 07:00:00 13.4 14 Sur 26 Sur 0 -- -- 80
2019-06-19 06:00:00 13.5 13 Sudoeste 21 Sudoeste 0 -- -- 83
2019-06-19 05:00:00 13.3 13 Sudoeste 22 Sudoeste 0 -- -- 81
2019-06-19 04:00:00 12.8 16 Sudoeste 23 Sudoeste 0 -- -- 83
2019-06-19 03:00:00 13 14 Sudoeste 27 Sudoeste 0 -- -- 79
2019-06-19 02:00:00 12.5 5 Sur 16 Sudoeste 0 -- -- 78
2019-06-19 01:00:00 13.9 10 Sudoeste 22 Sur 0 -- -- 74
2019-06-19 00:00:00 14.9 18 Sudoeste 30 Sudoeste 0 -- -- 70
2019-06-18 23:00:00 15.7 12 Sudoeste 25 Sudoeste 0 -- -- 66
2019-06-18 22:00:00 16.7 20 Sudoeste 33 Sur 0 -- -- 64
2019-06-18 21:00:00 18.2 26 Sur 42 Sur 0 -- -- 59
2019-06-18 20:00:00 18.3 23 Sudoeste 49 Sudoeste 0 -- -- 58
2019-06-18 19:00:00 18.7 23 Sur 41 Sudoeste 0 -- -- 60
2019-06-18 18:00:00 18.6 22 Sur 44 Sudoeste 0 -- -- 59
2019-06-18 17:00:00 19 25 Sudoeste 48 Sur 0 -- -- 57
2019-06-18 16:00:00 18.1 28 Sudoeste 45 Sudoeste 0 -- -- 61
2019-06-18 15:00:00 18.5 21 Sur 48 Sur 0 -- -- 57
2019-06-18 14:00:00 20 23 Sudoeste 50 Sur 0 -- -- 48
2019-06-18 13:00:00 19.7 19 Sur 44 Sudeste 0 -- -- 43
2019-06-18 12:00:00 18.3 24 Sur 52 Sur 0 -- -- 45
2019-06-18 11:00:00 18 23 Sur 49 Sur 0 -- -- 46
2019-06-18 10:00:00 17.2 18 Sur 40 Sur 0 -- -- 30
2019-06-18 09:00:00 16.3 14 Sur 34 Sur 0 -- -- 27
2019-06-18 08:00:00 15.4 24 Sur 47 Sur 0 -- -- 28
2019-06-18 07:00:00 14.8 19 Sur 44 Sur 0 -- -- 41
2019-06-18 06:00:00 15.5 20 Sur 36 Sur 0 -- -- 45
2019-06-18 05:00:00 16.2 13 Sur 41 Sudoeste 0 -- -- 44
2019-06-18 04:00:00 17.6 13 Sur 39 Sudeste 0 -- -- 41
2019-06-18 03:00:00 18.4 14 Sur 30 Sur 0 -- -- 32
2019-06-18 02:00:00 19 14 Sur 33 Sur 0 -- -- 28
2019-06-18 01:00:00 16.6 7 Sudeste 22 Sur 0 -- -- 32
2019-06-18 00:00:00 15.5 5 Sur 24 Sur 0 -- -- 38
2019-06-17 23:00:00 16.8 4 Sudeste 18 Sudeste 0 -- -- 38
2019-06-17 22:00:00 18 12 Sudeste 13 Sudeste 0 -- -- 40
2019-06-17 21:00:00 20.7 8 Sudoeste 18 Sudoeste 0 -- -- 29
2019-06-17 20:00:00 22.1 10 Sudoeste 19 Sudoeste 0 -- -- 23
2019-06-17 19:00:00 22.5 12 Sudoeste 26 Sur 0 -- -- 21
2019-06-17 18:00:00 22.6 18 Sur 37 Sur 0 -- -- 22
2019-06-17 17:00:00 23.3 16 Sudoeste 37 Sudoeste 0 -- -- 28
2019-06-17 16:00:00 22.8 15 Sur 39 Sudeste 0 -- -- 30
2019-06-17 15:00:00 22.5 21 Sur 39 Sudoeste 0 -- -- 30
2019-06-17 14:00:00 22.6 21 Sudoeste 42 Sur 0 -- -- 31
2019-06-17 13:00:00 22.2 13 Sudeste 44 Sudoeste 0 -- -- 32
2019-06-17 12:00:00 21.2 21 Sudoeste 37 Sudoeste 0 -- -- 37
2019-06-17 11:00:00 20.3 15 Sur 30 Sudoeste 0 -- -- 41
2019-06-17 10:00:00 19.5 15 Sur 24 Sudoeste 0 -- -- 41
2019-06-17 09:00:00 17 0 Calma 13 Sur 0 -- -- 49
2019-06-17 08:00:00 12 12 Sur 15 Sudeste 0 -- -- 61
2019-06-17 07:00:00 10.6 12 Sudeste 15 Sur 0 -- -- 65
2019-06-17 06:00:00 11 7 Sur 18 Sur 0 -- -- 64
2019-06-17 05:00:00 11.2 15 Sur 19 Sur 0 -- -- 68
2019-06-17 04:00:00 10.6 11 Sur 18 Sudeste 0 -- -- 69
2019-06-17 03:00:00 11 13 Sur 20 Sur 0 -- -- 67
2019-06-17 02:00:00 11.9 15 Sur 20 Sur 0 -- -- 68
2019-06-17 01:00:00 12.3 7 Sur 17 Sudoeste 0 -- -- 63
2019-06-17 00:00:00 14.9 12 Sudoeste 17 Sudoeste 0 -- -- 63
2019-06-16 23:00:00 15.3 13 Sur 21 Sur 0 -- -- 45
2019-06-16 22:00:00 18.6 8 Sur 15 Oeste 0 -- -- 39
2019-06-16 21:00:00 23.2 7 Sur 22 Sudoeste 0 -- -- 29
2019-06-16 20:00:00 23.8 9 Sur 26 Sudeste 0 -- -- 26
2019-06-16 19:00:00 23.8 16 Sur 29 Sudoeste 0 -- -- 27
2019-06-16 18:00:00 24.2 9 Sur 27 Sur 0 -- -- 26
2019-06-16 17:00:00 23.8 11 Sur 29 Sur 0 -- -- 26
2019-06-16 16:00:00 22.9 12 Sur 23 Sur 0 -- -- 28
2019-06-16 15:00:00 22.7 12 Sudoeste 29 Sudoeste 0 -- -- 28
2019-06-16 14:00:00 22.6 13 Sur 24 Sudeste 0 -- -- 31
2019-06-16 13:00:00 21.1 13 Sur 29 Sur 0 -- -- 29
2019-06-16 12:00:00 20.4 15 Sur 30 Sur 0 -- -- 33
2019-06-16 11:00:00 20 16 Sur 31 Sudoeste 0 -- -- 33
2019-06-16 10:00:00 18.5 18 Sudoeste 30 Sur 0 -- -- 37
2019-06-16 09:00:00 16.2 9 Nordeste 20 Este 0 -- -- 48
2019-06-16 08:00:00 12.8 13 Este 18 Este 0 -- -- 58
2019-06-16 07:00:00 7.7 9 Este 14 Este 0 -- -- 78
2019-06-16 06:00:00 9.5 8 Este 14 Este 0 -- -- 71
2019-06-16 05:00:00 7.8 10 Sudeste 12 Este 0 -- -- 77
2019-06-16 04:00:00 7.5 10 Sudeste 14 Sur 0 -- -- 74
2019-06-16 03:00:00 7.8 12 Sur 15 Sur 0 -- -- 70
2019-06-16 02:00:00 8.8 5 Sur 13 Sur 0 -- -- 65
2019-06-16 01:00:00 10 12 Sudeste 15 Sur 0 -- -- 60
2019-06-16 00:00:00 10.6 12 Sudeste 15 Sudeste 0 -- -- 59
2019-06-15 23:00:00 11.6 12 Sur 14 Sur 0 -- -- 58
2019-06-15 22:00:00 16.6 2 Noroeste 14 Noroeste 0 -- -- 45
2019-06-15 21:00:00 19.6 8 Noroeste 18 Norte 0 -- -- 36
2019-06-15 20:00:00 20.3 10 Oeste 24 Oeste 0 -- -- 34
2019-06-15 19:00:00 20.4 10 Oeste 22 Noroeste 0 -- -- 34
2019-06-15 18:00:00 20.3 11 Noroeste 27 Oeste 0 -- -- 35
2019-06-15 17:00:00 19.7 8 Noroeste 21 Oeste 0 -- -- 37
2019-06-15 16:00:00 18.8 6 Norte 23 Oeste 0 -- -- 39
2019-06-15 15:00:00 17.6 10 Norte 22 Norte 0 -- -- 41
2019-06-15 14:00:00 16.3 5 Norte 20 Noroeste 0 -- -- 45
2019-06-15 13:00:00 15.1 7 Oeste 18 Oeste 0 -- -- 48
2019-06-15 12:00:00 13.7 5 Nordeste 13 Norte 0 -- -- 58
2019-06-15 11:00:00 11.4 4 Oeste 10 Norte 0 -- -- 67
2019-06-15 10:00:00 10.5 5 Norte 12 Noroeste 0 -- -- 71
2019-06-15 09:00:00 8.5 3 Nordeste 7 Norte 0 -- -- 87
2019-06-15 08:00:00 6.4 0 Calma 9 Sur 0 -- -- 95
2019-06-15 07:00:00 4.7 7 Sur 11 Sur 0 -- -- 95
2019-06-15 06:00:00 5 8 Sudoeste 11 Sur 0 -- -- 94
2019-06-15 05:00:00 4.8 6 Sudoeste 12 Sudoeste 0 -- -- 92
2019-06-15 04:00:00 4.9 6 Sudoeste 11 Sur 0 -- -- 93
2019-06-15 03:00:00 5.7 8 Sur 17 Sudoeste 0 -- -- 88
2019-06-15 02:00:00 6.8 11 Sudoeste 18 Sudoeste 0 -- -- 87
2019-06-15 01:00:00 7.7 9 Sudoeste 22 Sudoeste 0 -- -- 81
2019-06-15 00:00:00 8.1 9 Sudoeste 25 Oeste 0 -- -- 78
2019-06-14 23:00:00 10.1 16 Oeste 26 Oeste 0 -- -- 73
2019-06-14 22:00:00 10.9 17 Oeste 31 Oeste 0 -- -- 66
2019-06-14 21:00:00 12.3 17 Oeste 36 Oeste 0 -- -- 55
2019-06-14 20:00:00 13.4 21 Oeste 36 Oeste 0 -- -- 54
2019-06-14 19:00:00 14.7 23 Oeste 36 Oeste 0 -- -- 50
2019-06-14 18:00:00 16.7 24 Oeste 36 Oeste 0 -- -- 47
2019-06-14 17:00:00 16.9 24 Oeste 37 Sudoeste 0 -- -- 47
2019-06-14 16:00:00 15.5 18 Oeste 32 Oeste 0 -- -- 48
2019-06-14 15:00:00 15.6 19 Sudoeste 31 Sudoeste 0 -- -- 47
2019-06-14 14:00:00 15.7 20 Oeste 35 Sudoeste 0 -- -- 49
2019-06-14 13:00:00 14.4 21 Oeste 37 Oeste 0 -- -- 55
2019-06-14 12:00:00 13.9 14 Noroeste 27 Oeste 0 -- -- 52
2019-06-14 11:00:00 11.5 11 Oeste 23 Oeste 0 -- -- 70
2019-06-14 10:00:00 10 12 Oeste 20 Oeste 0 -- -- 76
2019-06-14 09:00:00 8.7 10 Oeste 15 Oeste 0 -- -- 79
2019-06-14 08:00:00 6.6 5 Oeste 13 Sudeste 0 -- -- 82
2019-06-14 07:00:00 7.6 8 Sudeste 14 Sur 0 -- -- 70
2019-06-14 06:00:00 4.5 5 Sudeste 18 Sur 0 -- -- 85
2019-06-14 05:00:00 4.4 9 Sur 16 Sudeste 0 -- -- 85
2019-06-14 04:00:00 5.8 8 Sur 17 Sur 0 -- -- 81
2019-06-14 03:00:00 5.4 6 Sudeste 13 Sudeste 0 -- -- 81
2019-06-14 02:00:00 7.2 12 Sur 17 Sur 0 -- -- 75
2019-06-14 01:00:00 7.6 10 Sur 16 Sur 0 -- -- 72
2019-06-14 00:00:00 8.6 8 Sur 11 Sudeste 0 -- -- 68
2019-06-13 23:00:00 10.6 6 Sur 10 Sudoeste 0 -- -- 61
2019-06-13 22:00:00 14.3 7 Oeste 22 Oeste 0 -- -- 50
2019-06-13 21:00:00 18.3 13 Oeste 28 Oeste 0 -- -- 42
2019-06-13 20:00:00 20.2 14 Sudoeste 33 Oeste 0 -- -- 29
2019-06-13 19:00:00 20.5 21 Oeste 35 Oeste 0 -- -- 26
2019-06-13 18:00:00 20.8 18 Oeste 43 Sudoeste 0 -- -- 23
2019-06-13 17:00:00 20.6 15 Sur 34 Sur 0 -- -- 25
2019-06-13 16:00:00 20.2 14 Sudoeste 32 Sudoeste 0 -- -- 22
2019-06-13 15:00:00 19.3 11 Sudoeste 33 Sudoeste 0 -- -- 24
2019-06-13 14:00:00 18.5 16 Sur 27 Sur 0 -- -- 27
2019-06-13 13:00:00 17.4 12 Sur 28 Sudoeste 0 -- -- 32
2019-06-13 12:00:00 14.7 6 Noroeste 14 Oeste 0 -- -- 53
2019-06-13 11:00:00 12.3 7 Noroeste 14 Noroeste 0 -- -- 60
2019-06-13 10:00:00 10.7 5 Noroeste 10 Noroeste 0 -- -- 68
2019-06-13 09:00:00 8.7 4 Oeste 9 Oeste 0 -- -- 79
2019-06-13 08:00:00 4.5 6 Sur 14 Sur 0 -- -- 86
2019-06-13 07:00:00 3.3 12 Sur 17 Sudeste 0 -- -- 88
2019-06-13 06:00:00 3.5 13 Sur 14 Sur 0 -- -- 85
2019-06-13 05:00:00 4.4 11 Sur 17 Sur 0 -- -- 82
2019-06-13 04:00:00 5 10 Sur 15 Sur 0 -- -- 77
2019-06-13 03:00:00 5.9 9 Sur 17 Sudeste 0 -- -- 69
2019-06-13 02:00:00 7 13 Sur 18 Sur 0 -- -- 62
2019-06-13 01:00:00 7.1 13 Sur 17 Sur 0 -- -- 56
2019-06-13 00:00:00 8.6 14 Sur 19 Sudeste 0 -- -- 49
2019-06-12 23:00:00 9.9 14 Sur 17 Sur 0 -- -- 48
2019-06-12 22:00:00 14 5 Sur 14 Noroeste 0 -- -- 40
2019-06-12 21:00:00 17.8 11 Noroeste 23 Noroeste 0 -- -- 30
2019-06-12 20:00:00 19.4 11 Noroeste 26 Noroeste 0 -- -- 28
2019-06-12 19:00:00 20.1 21 Oeste 31 Oeste 0 -- -- 28
2019-06-12 18:00:00 19.5 15 Oeste 38 Sudoeste 0 -- -- 27
2019-06-12 17:00:00 19.5 8 Noroeste 53 Oeste 0 -- -- 29
2019-06-12 16:00:00 19.4 17 Noroeste 31 Oeste 0 -- -- 31
2019-06-12 15:00:00 18.1 11 Oeste 27 Oeste 0 -- -- 32
2019-06-12 14:00:00 16.8 6 Norte 24 Noroeste 0 -- -- 35
2019-06-12 13:00:00 16 4 Este 18 Noroeste 0 -- -- 41
2019-06-12 12:00:00 14.4 8 Noroeste 19 Nordeste 0 -- -- 45
2019-06-12 11:00:00 13.3 8 Norte 19 Este 0 -- -- 47
2019-06-12 10:00:00 11.1 15 Nordeste 24 Nordeste 0 -- -- 53
2019-06-12 09:00:00 9.3 17 Nordeste 27 Este 0 -- -- 58
2019-06-12 08:00:00 6.9 15 Este 21 Nordeste 0 -- -- 64
2019-06-12 07:00:00 5.3 15 Este 26 Este 0 -- -- 69
2019-06-12 06:00:00 5.7 15 Este 23 Este 0 -- -- 67
2019-06-12 05:00:00 6.1 14 Este 20 Este 0 -- -- 65
2019-06-12 04:00:00 6.2 12 Este 17 Nordeste 0 -- -- 65
2019-06-12 03:00:00 7.3 12 Este 19 Nordeste 0 -- -- 61
2019-06-12 02:00:00 7 9 Este 16 Sur 0 -- -- 58
2019-06-12 01:00:00 6.9 15 Sur 18 Sur 0 -- -- 55
2019-06-12 00:00:00 9.6 2 Sudoeste 15 Este 0 -- -- 44
2019-06-11 23:00:00 10.5 10 Este 13 Este 0 -- -- 42
2019-06-11 22:00:00 12.9 7 Este 18 Nordeste 0 -- -- 37
2019-06-11 21:00:00 16.1 13 Norte 27 Norte 0 -- -- 29
2019-06-11 20:00:00 17.1 14 Norte 31 Nordeste 0 -- -- 27
2019-06-11 19:00:00 17.3 19 Norte 35 Norte 0 -- -- 24
2019-06-11 18:00:00 17.4 19 Nordeste 37 Nordeste 0 -- -- 25
2019-06-11 17:00:00 17.5 17 Nordeste 40 Norte 0 -- -- 25
2019-06-11 16:00:00 16.5 18 Norte 39 Nordeste 0 -- -- 32
2019-06-11 15:00:00 15.3 28 Nordeste 47 Nordeste 0 -- -- 36
2019-06-11 14:00:00 14.9 22 Norte 45 Norte 0 -- -- 39
2019-06-11 13:00:00 14.6 24 Nordeste 40 Norte 0 -- -- 44
2019-06-11 12:00:00 12.8 18 Norte 35 Norte 0 -- -- 55
2019-06-11 11:00:00 11.6 22 Norte 38 Nordeste 0 -- -- 61
2019-06-11 10:00:00 10.2 19 Norte 30 Norte 0 -- -- 67
2019-06-11 09:00:00 8.6 12 Norte 22 Norte 0 -- -- 82
2019-06-11 08:00:00 8 10 Norte 19 Noroeste 0 -- -- 87
2019-06-11 07:00:00 7.4 0 Calma 7 Sur 0 -- -- 89
2019-06-11 06:00:00 6.6 4 Sur 9 Sudoeste 0 -- -- 88
2019-06-11 05:00:00 7.4 5 Sudoeste 10 Oeste 0 -- -- 85
2019-06-11 04:00:00 8.5 6 Sudoeste 10 Sudoeste 0 -- -- 82
2019-06-11 03:00:00 9.1 6 Sudoeste 13 Sudoeste 0 -- -- 80
2019-06-11 02:00:00 9.5 9 Sudoeste 17 Sudoeste 0 -- -- 77
2019-06-11 01:00:00 10.7 10 Oeste 17 Oeste 0 -- -- 74
2019-06-11 00:00:00 11.2 6 Oeste 12 Oeste 0 -- -- 70
2019-06-10 23:00:00 12.5 4 Sudoeste 15 Oeste 0 -- -- 54
2019-06-10 22:00:00 14.9 11 Oeste 29 Oeste 0 -- -- 43
2019-06-10 21:00:00 17.9 18 Noroeste 27 Noroeste 0 -- -- 31
2019-06-10 20:00:00 19.3 17 Noroeste 26 Noroeste 0 -- -- 30
2019-06-10 19:00:00 19.7 16 Noroeste 31 Noroeste 0 -- -- 27
2019-06-10 18:00:00 19.8 17 Noroeste 31 Noroeste 0 -- -- 28
2019-06-10 17:00:00 19.5 15 Oeste 29 Oeste 0 -- -- 30
2019-06-10 16:00:00 18.8 18 Oeste 28 Noroeste 0 -- -- 33
2019-06-10 15:00:00 18 12 Oeste 21 Noroeste 0 -- -- 35
2019-06-10 14:00:00 16.6 10 Oeste 23 Sudoeste 0 -- -- 44
2019-06-10 13:00:00 15.7 6 Norte 17 Noroeste 0 -- -- 55
2019-06-10 12:00:00 14.3 7 Noroeste 16 Oeste 0 -- -- 63
2019-06-10 11:00:00 12.7 5 Noroeste 15 Noroeste 0 -- -- 71
2019-06-10 10:00:00 10.9 4 Noroeste 9 Norte 0 -- -- 79
2019-06-10 09:00:00 9.1 0 Calma 6 Oeste 0 -- -- 86
2019-06-10 08:00:00 5.8 3 Sudoeste 15 Sur 0 -- -- 94
2019-06-10 07:00:00 4.7 10 Sur 14 Sur 0 -- -- 94
2019-06-10 06:00:00 5.2 10 Sur 13 Sur 0 -- -- 92
2019-06-10 05:00:00 6 8 Sur 16 Sur 0 -- -- 91
2019-06-10 04:00:00 6 9 Sur 14 Sur 0 -- -- 89
2019-06-10 03:00:00 6.8 9 Sur 14 Sur 0 -- -- 86
2019-06-10 02:00:00 8 6 Sur 13 Sur 0 -- -- 81
2019-06-10 01:00:00 9.1 5 Sudoeste 12 Oeste 0 -- -- 78
2019-06-10 00:00:00 9.7 6 Sudoeste 10 Sudoeste 0 -- -- 76
2019-06-09 23:00:00 11.1 7 Sudoeste 17 Oeste 0 -- -- 67
2019-06-09 22:00:00 13.7 13 Oeste 30 Oeste 0 -- -- 57
2019-06-09 21:00:00 16.3 17 Oeste 33 Oeste 0 -- -- 46
2019-06-09 20:00:00 16.1 15 Noroeste 35 Oeste 0 -- -- 46
2019-06-09 19:00:00 18.8 17 Oeste 31 Oeste 0 -- -- 41
2019-06-09 18:00:00 18.7 23 Oeste 34 Oeste 0 -- -- 42
2019-06-09 17:00:00 18.4 16 Oeste 38 Oeste 0 -- -- 42
2019-06-09 16:00:00 18.6 14 Oeste 33 Oeste 0 -- -- 41
2019-06-09 15:00:00 18.3 15 Sudoeste 31 Noroeste 0 -- -- 39
2019-06-09 14:00:00 17.2 16 Oeste 30 Oeste 0 -- -- 46
2019-06-09 13:00:00 16.5 10 Noroeste 24 Oeste 0 -- -- 46
2019-06-09 12:00:00 15 8 Oeste 21 Oeste 0 -- -- 59
2019-06-09 11:00:00 12.9 7 Oeste 14 Oeste 0 -- -- 68
2019-06-09 10:00:00 11.4 5 Oeste 16 Oeste 0 -- -- 74
2019-06-09 09:00:00 9.6 10 Oeste 18 Oeste 0 -- -- 82
2019-06-09 08:00:00 6.4 4 Sudoeste 11 Sur 0 -- -- 92
2019-06-09 07:00:00 5.3 10 Sur 15 Sur 0 -- -- 91
2019-06-09 06:00:00 5.8 10 Sur 18 Sur 0 -- -- 89
2019-06-09 05:00:00 6.6 14 Sur 18 Sur 0 -- -- 88
2019-06-09 04:00:00 6.3 12 Sur 15 Sur 0 -- -- 91
2019-06-09 03:00:00 7.4 14 Sur 15 Sur 0 -- -- 88
2019-06-09 02:00:00 9.1 7 Sur 16 Sudoeste 0 -- -- 85
2019-06-09 01:00:00 9.7 8 Sudoeste 13 Sudoeste 0 -- -- 82
2019-06-09 00:00:00 11.1 7 Sudoeste 15 Sudoeste 0 -- -- 74
2019-06-08 23:00:00 13 9 Sudoeste 20 Oeste 0 -- -- 62
2019-06-08 22:00:00 16.3 3 Oeste 19 Sudoeste 0 -- -- 46
2019-06-08 21:00:00 19 8 Sudoeste 17 Sudoeste 0 -- -- 30
2019-06-08 20:00:00 19.5 12 Sudoeste 25 Sudoeste 0 -- -- 31
2019-06-08 19:00:00 20.3 15 Sudoeste 27 Sudoeste 0 -- -- 26
2019-06-08 18:00:00 21.6 12 Sur 24 Sudeste 0 -- -- 27
2019-06-08 17:00:00 21.2 10 Sudoeste 29 Sur 0 -- -- 25
2019-06-08 16:00:00 20.7 13 Sur 29 Sur 0 -- -- 26
2019-06-08 15:00:00 20.2 15 Sur 30 Sur 0 -- -- 30
2019-06-08 14:00:00 19 18 Sur 32 Sudoeste 0 -- -- 31
2019-06-08 13:00:00 18.8 14 Sur 25 Sur 0 -- -- 29
2019-06-08 12:00:00 16.2 7 Norte 18 Nordeste 0 -- -- 44
2019-06-08 11:00:00 14.3 9 Nordeste 22 Este 0 -- -- 47
2019-06-08 10:00:00 12.1 13 Nordeste 21 Este 0 -- -- 53
2019-06-08 09:00:00 10.3 13 Este 19 Nordeste 0 -- -- 57
2019-06-08 08:00:00 6.8 12 Este 16 Nordeste 0 -- -- 74
2019-06-08 07:00:00 5.4 11 Este 17 Este 0 -- -- 77
2019-06-08 06:00:00 5.6 14 Este 16 Nordeste 0 -- -- 82
2019-06-08 05:00:00 5.9 9 Este 14 Nordeste 0 -- -- 81
2019-06-08 04:00:00 5.1 9 Este 11 Este 0 -- -- 88
2019-06-08 03:00:00 4.3 6 Sudeste 12 Sudeste 0 -- -- 87
2019-06-08 02:00:00 4.9 10 Sudeste 13 Sudeste 0 -- -- 85
2019-06-08 01:00:00 5.6 12 Sur 14 Sur 0 -- -- 82
2019-06-08 00:00:00 6.5 9 Sur 15 Sur 0 -- -- 77
2019-06-07 23:00:00 7.4 9 Sur 14 Sudeste 0 -- -- 73
2019-06-07 22:00:00 10.4 4 Sudeste 17 Noroeste 0 -- -- 63
2019-06-07 21:00:00 13.8 10 Noroeste 18 Noroeste 0 -- -- 47
2019-06-07 20:00:00 14.8 10 Oeste 27 Noroeste 0 -- -- 44
2019-06-07 19:00:00 14.4 7 Noroeste 24 Sur 0 -- -- 46
2019-06-07 18:00:00 15 12 Oeste 22 Oeste 0 -- -- 43
2019-06-07 17:00:00 13.8 12 Oeste 28 Noroeste 0 -- -- 47
2019-06-07 16:00:00 13.4 12 Noroeste 30 Oeste 0 -- -- 51
2019-06-07 15:00:00 12.2 8 Noroeste 27 Oeste 0 -- -- 57
2019-06-07 14:00:00 12.1 11 Oeste 26 Oeste 0 -- -- 60
2019-06-07 13:00:00 11.1 15 Oeste 26 Oeste 0 -- -- 63
2019-06-07 12:00:00 9.8 11 Oeste 21 Oeste 0 -- -- 70
2019-06-07 11:00:00 8.1 9 Oeste 21 Oeste 0 -- -- 81
2019-06-07 10:00:00 6.7 10 Oeste 24 Oeste 0 -- -- 86
2019-06-07 09:00:00 5.8 10 Sudoeste 24 Sudoeste 0 -- -- 95
2019-06-07 08:00:00 5.2 12 Sudoeste 29 Oeste 0 -- -- 95
2019-06-07 07:00:00 5 14 Oeste 34 Oeste 0 -- -- 95
2019-06-07 06:00:00 5.1 22 Oeste 32 Oeste 0 -- -- 94
2019-06-07 05:00:00 5.1 15 Sudoeste 28 Sudoeste 0 -- -- 94
2019-06-07 04:00:00 5.2 18 Sudoeste 28 Sudoeste 0 -- -- 94
2019-06-07 03:00:00 5 13 Sudoeste 23 Sudoeste 0 -- -- 95
2019-06-07 02:00:00 5.5 12 Sudoeste 26 Sudoeste 0 -- -- 95
2019-06-07 01:00:00 6.3 17 Sudoeste 32 Oeste 0.2 -- -- 96
2019-06-07 00:00:00 7.1 19 Oeste 36 Oeste 2.2 -- -- 97
2019-06-06 23:00:00 7.7 20 Oeste 57 Oeste 4 -- -- 95
2019-06-06 22:00:00 11.6 25 Sudoeste 56 Sur 0 -- -- 82
2019-06-06 21:00:00 12.4 37 Sur 63 Sudoeste 0 -- -- 73
2019-06-06 20:00:00 13.3 37 Sur 70 Sur 0 -- -- 64
2019-06-06 19:00:00 14.5 44 Sur 73 Sudoeste 0 -- -- 57
2019-06-06 18:00:00 16.6 32 Sur 66 Sur 0 -- -- 49
2019-06-06 17:00:00 16.4 35 Sur 72 Sur 0 -- -- 48
2019-06-06 16:00:00 15.8 33 Sur 58 Sur 0 -- -- 49
2019-06-06 15:00:00 15.8 26 Sur 49 Sur 0 -- -- 45
2019-06-06 14:00:00 14.6 27 Sur 43 Sudoeste 0 -- -- 45
2019-06-06 13:00:00 13.7 24 Sur 40 Sur 0 -- -- 46
2019-06-06 12:00:00 13 19 Sur 33 Sur 0 -- -- 48
2019-06-06 11:00:00 12.5 14 Sur 26 Sur 0 -- -- 50
2019-06-06 10:00:00 10 3 Nordeste 6 Norte 0 -- -- 64
2019-06-06 09:00:00 7.8 2 Nordeste 12 Sur 0 -- -- 75
2019-06-06 08:00:00 3.4 9 Sur 15 Sur 0 -- -- 86
2019-06-06 07:00:00 2 12 Sur 15 Sudeste 0 -- -- 89
2019-06-06 06:00:00 2.1 13 Sur 15 Sudeste 0 -- -- 89
2019-06-06 05:00:00 2 8 Sur 12 Sur 0 -- -- 89
2019-06-06 04:00:00 2.7 10 Sur 14 Sur 0 -- -- 86
2019-06-06 03:00:00 3 11 Sur 13 Sur 0 -- -- 85
2019-06-06 02:00:00 3.6 7 Sur 10 Sur 0 -- -- 82
2019-06-06 01:00:00 4.8 6 Sudoeste 12 Sudoeste 0 -- -- 77
2019-06-06 00:00:00 7 5 Sudoeste 10 Oeste 0 -- -- 69
2019-06-05 23:00:00 8.7 8 Oeste 13 Oeste 0 -- -- 64
2019-06-05 22:00:00 9.6 10 Oeste 23 Oeste 0 -- -- 59
2019-06-05 21:00:00 11.4 15 Oeste 28 Oeste 0 -- -- 52
2019-06-05 20:00:00 12.2 17 Oeste 31 Oeste 0 -- -- 54
2019-06-05 19:00:00 14.7 20 Oeste 35 Oeste 0 -- -- 47
2019-06-05 18:00:00 14.9 20 Oeste 36 Oeste 0 -- -- 40
2019-06-05 17:00:00 14.6 23 Oeste 42 Oeste 0 -- -- 45
2019-06-05 16:00:00 13.5 20 Oeste 38 Oeste 0 -- -- 44
2019-06-05 15:00:00 13.1 16 Oeste 37 Oeste 0 -- -- 43
2019-06-05 14:00:00 12.9 16 Oeste 26 Oeste 0 -- -- 52
2019-06-05 13:00:00 11 13 Oeste 27 Oeste 0 -- -- 62
2019-06-05 12:00:00 9.9 17 Oeste 31 Oeste 0 -- -- 64
2019-06-05 11:00:00 8.5 14 Oeste 30 Oeste 0 -- -- 74
2019-06-05 10:00:00 7.3 14 Oeste 27 Oeste 0 -- -- 82
2019-06-05 09:00:00 6.2 17 Oeste 27 Oeste 0 -- -- 91
2019-06-05 08:00:00 5.4 14 Oeste 26 Oeste 0 -- -- 95
2019-06-05 07:00:00 5.3 18 Oeste 25 Oeste 0 -- -- 94
2019-06-05 06:00:00 5.5 15 Oeste 26 Oeste 0 -- -- 93
2019-06-05 05:00:00 5.7 11 Oeste 22 Sudoeste 0 -- -- 92
2019-06-05 04:00:00 6.6 16 Oeste 23 Sudoeste 0 -- -- 89
2019-06-05 03:00:00 6.7 11 Sudoeste 21 Sudoeste 0 -- -- 86
2019-06-05 02:00:00 7.3 10 Sudoeste 24 Noroeste 0 -- -- 81
2019-06-05 01:00:00 8.5 14 Oeste 30 Oeste 0 -- -- 76
2019-06-05 00:00:00 10.1 19 Oeste 32 Oeste 0 -- -- 67
2019-06-04 23:00:00 11.5 20 Oeste 30 Oeste 0 -- -- 62
2019-06-04 22:00:00 12.3 15 Oeste 26 Noroeste 0 -- -- 66
2019-06-04 21:00:00 13.4 14 Oeste 26 Oeste 0 -- -- 69
2019-06-04 20:00:00 14.4 18 Oeste 30 Oeste 0 -- -- 65
2019-06-04 19:00:00 14.4 21 Oeste 30 Oeste 0 -- -- 67
2019-06-04 18:00:00 14 12 Oeste 26 Oeste 0 -- -- 72
2019-06-04 17:00:00 14.3 22 Oeste 43 Noroeste 0 -- -- 76
2019-06-04 16:00:00 20 20 Sudoeste 40 Oeste 0 -- -- 47
2019-06-04 15:00:00 19.6 24 Oeste 42 Oeste 0 -- -- 48
2019-06-04 14:00:00 18.9 19 Sudoeste 33 Oeste 0 -- -- 50
2019-06-04 13:00:00 17.8 17 Oeste 31 Oeste 0 -- -- 56
2019-06-04 12:00:00 15.8 20 Oeste 31 Oeste 0 -- -- 67
2019-06-04 11:00:00 13.9 18 Noroeste 26 Oeste 0 -- -- 73
2019-06-04 10:00:00 12.5 14 Oeste 22 Oeste 0 -- -- 78
2019-06-04 09:00:00 10.9 14 Oeste 22 Oeste 0 -- -- 87
2019-06-04 08:00:00 10.5 11 Oeste 17 Oeste 0 -- -- 93
2019-06-04 07:00:00 10.7 7 Oeste 16 Oeste 0 -- -- 94
2019-06-04 06:00:00 11.1 8 Oeste 15 Oeste 0 -- -- 95
2019-06-04 05:00:00 11.5 7 Sudoeste 14 Sudoeste 0 -- -- 96
2019-06-04 04:00:00 10.1 4 Sur 9 Sur 0 -- -- 94
2019-06-04 03:00:00 11.4 4 Oeste 14 Sudoeste 0 -- -- 91
2019-06-04 02:00:00 12.1 9 Sudoeste 17 Sudoeste 0 -- -- 89
2019-06-04 01:00:00 12.8 10 Sudoeste 15 Sudoeste 0 -- -- 85
2019-06-04 00:00:00 14.2 9 Sudoeste 21 Sudoeste 0 -- -- 79
2019-06-03 23:00:00 16.2 13 Sudoeste 20 Sudoeste 0 -- -- 71
2019-06-03 22:00:00 18.8 13 Oeste 26 Oeste 0 -- -- 63
2019-06-03 21:00:00 22.8 20 Oeste 39 Oeste 0 -- -- 53
2019-06-03 20:00:00 25.1 22 Sudoeste 39 Sudoeste 0 -- -- 36
2019-06-03 19:00:00 26.1 26 Sudoeste 40 Sudoeste 0 -- -- 28
2019-06-03 18:00:00 26.8 22 Sur 38 Sudoeste 0 -- -- 22
2019-06-03 17:00:00 26.5 24 Oeste 45 Sudoeste 0 -- -- 24
2019-06-03 16:00:00 26.7 15 Sudoeste 41 Oeste 0 -- -- 24
2019-06-03 15:00:00 26.4 15 Sudoeste 33 Sudoeste 0 -- -- 25
2019-06-03 14:00:00 25.3 10 Sur 30 Sudoeste 0 -- -- 26
2019-06-03 13:00:00 23.7 15 Oeste 27 Oeste 0 -- -- 32
2019-06-03 12:00:00 22.2 7 Noroeste 16 Sudoeste 0 -- -- 34
2019-06-03 11:00:00 20.9 9 Noroeste 14 Noroeste 0 -- -- 37
2019-06-03 10:00:00 18.3 6 Noroeste 13 Noroeste 0 -- -- 37
2019-06-03 09:00:00 15.4 8 Sur 22 Sur 0 -- -- 44
2019-06-03 08:00:00 11.4 19 Sur 21 Sudeste 0 -- -- 58
2019-06-03 07:00:00 11.2 10 Sur 17 Sur 0 -- -- 61
2019-06-03 06:00:00 11.3 14 Sur 18 Sur 0 -- -- 64
2019-06-03 05:00:00 11.9 10 Sur 15 Sudeste 0 -- -- 66
2019-06-03 04:00:00 14 10 Sur 17 Sur 0 -- -- 61
2019-06-03 03:00:00 13.8 11 Sur 14 Sur 0 -- -- 60
2019-06-03 02:00:00 14.7 9 Sur 13 Sur 0 -- -- 58
2019-06-03 01:00:00 15.5 8 Sur 14 Sudeste 0 -- -- 55
2019-06-03 00:00:00 16.2 6 Sur 13 Sudoeste 0 -- -- 52
2019-06-02 23:00:00 18.2 6 Sur 10 Oeste 0 -- -- 46
2019-06-02 22:00:00 20.7 8 Sudoeste 20 Oeste 0 -- -- 39
2019-06-02 21:00:00 22.9 12 Oeste 25 Oeste 0 -- -- 32
2019-06-02 20:00:00 25.1 15 Oeste 32 Oeste 0 -- -- 28
2019-06-02 19:00:00 27.4 22 Oeste 42 Oeste 0 -- -- 26
2019-06-02 18:00:00 26.9 19 Oeste 41 Oeste 0 -- -- 25
2019-06-02 17:00:00 27.7 24 Oeste 41 Sudoeste 0 -- -- 26
2019-06-02 16:00:00 28.1 21 Oeste 37 Oeste 0 -- -- 25
2019-06-02 15:00:00 27.9 24 Oeste 42 Oeste 0 -- -- 26
2019-06-02 14:00:00 27.7 18 Sudoeste 34 Sudoeste 0 -- -- 24
2019-06-02 13:00:00 26.7 16 Oeste 50 Oeste 0 -- -- 24
2019-06-02 12:00:00 25.4 9 Noroeste 19 Oeste 0 -- -- 27
2019-06-02 11:00:00 23.9 3 Noroeste 10 Oeste 0 -- -- 29
2019-06-02 10:00:00 22.4 3 Norte 5 Nordeste 0 -- -- 38
2019-06-02 09:00:00 19.5 2 Sudeste 14 Sudeste 0 -- -- 39
2019-06-02 08:00:00 14.4 13 Sur 15 Sudeste 0 -- -- 47
2019-06-02 07:00:00 14.8 8 Sur 23 Sur 0 -- -- 41
2019-06-02 06:00:00 14.3 18 Sur 22 Sudeste 0 -- -- 46
2019-06-02 05:00:00 13.9 17 Sur 21 Sur 0 -- -- 52
2019-06-02 04:00:00 14.4 14 Sur 22 Sur 0 -- -- 52
2019-06-02 03:00:00 15.3 17 Sur 21 Sur 0 -- -- 49
2019-06-02 02:00:00 16.4 17 Sur 21 Sur 0 -- -- 47
2019-06-02 01:00:00 16.7 17 Sur 19 Sur 0 -- -- 47
2019-06-02 00:00:00 17.8 11 Sur 14 Sur 0 -- -- 48
2019-06-01 23:00:00 20.6 5 Sudoeste 24 Sudoeste 0 -- -- 41
2019-06-01 22:00:00 22.9 12 Sudoeste 17 Sudoeste 0 -- -- 32
2019-06-01 21:00:00 26.8 12 Sudoeste 21 Oeste 0 -- -- 28
2019-06-01 20:00:00 28.4 15 Oeste 22 Noroeste 0 -- -- 26
2019-06-01 19:00:00 29.2 13 Sudoeste 30 Oeste 0 -- -- 24
2019-06-01 18:00:00 29.5 13 Noroeste 30 Oeste 0 -- -- 23
2019-06-01 17:00:00 29.5 16 Sudoeste 30 Oeste 0 -- -- 23
2019-06-01 16:00:00 29.2 14 Oeste 26 Oeste 0 -- -- 25
2019-06-01 15:00:00 28.4 10 Sur 34 Sudeste 0 -- -- 24
2019-06-01 14:00:00 28.3 7 Nordeste 25 Oeste 0 -- -- 25
2019-06-01 13:00:00 28 8 Sur 18 Sudoeste 0 -- -- 22
2019-06-01 12:00:00 27.2 5 Noroeste 17 Sur 0 -- -- 25
2019-06-01 11:00:00 26.5 5 Sudoeste 12 Sudoeste 0 -- -- 24
2019-06-01 10:00:00 25.4 4 Este 9 Sudeste 0 -- -- 27
2019-06-01 09:00:00 22.6 5 Sudeste 9 Sudeste 0 -- -- 29
2019-06-01 08:00:00 15.2 5 Sudeste 13 Sur 0 -- -- 54
2019-06-01 07:00:00 14 12 Sudeste 25 Sur 0 -- -- 49
2019-06-01 06:00:00 14.2 16 Sur 20 Sur 0 -- -- 47
2019-06-01 05:00:00 14.8 18 Sur 22 Sur 0 -- -- 44
2019-06-01 04:00:00 14.8 19 Sur 23 Sur 0 -- -- 44
2019-06-01 03:00:00 16.1 3 Oeste 16 Sur 0 -- -- 43
2019-06-01 02:00:00 16.1 13 Sudeste 18 Sur 0 -- -- 45
2019-06-01 01:00:00 16.9 15 Sur 18 Sudeste 0 -- -- 43
2019-06-01 00:00:00 17.7 15 Sur 20 Sur 0 -- -- 43
2019-05-31 23:00:00 18.3 16 Sur 19 Sur 0 -- -- 40
2019-05-31 22:00:00 20.4 10 Sur 13 Sur 0 -- -- 39
2019-05-31 21:00:00 26.5 9 Noroeste 16 Norte 0 -- -- 27
2019-05-31 20:00:00 28.3 4 Noroeste 19 Noroeste 0 -- -- 22
2019-05-31 19:00:00 28.4 9 Noroeste 18 Noroeste 0 -- -- 23
2019-05-31 18:00:00 28.5 12 Noroeste 19 Norte 0 -- -- 24
2019-05-31 17:00:00 27.9 10 Norte 27 Noroeste 0 -- -- 21
2019-05-31 16:00:00 27.8 9 Sudoeste 18 Sudoeste 0 -- -- 25
2019-05-31 15:00:00 26.8 10 Norte 31 Noroeste 0 -- -- 23
2019-05-31 14:00:00 26.1 9 Noroeste 22 Noroeste 0 -- -- 25
2019-05-31 13:00:00 25.2 9 Noroeste 21 Oeste 0 -- -- 31
2019-05-31 12:00:00 23.4 8 Oeste 18 Oeste 0 -- -- 34
2019-05-31 11:00:00 22.6 10 Noroeste 14 Noroeste 0 -- -- 37
2019-05-31 10:00:00 22.4 6 Noroeste 12 Sur 0 -- -- 38
2019-05-31 09:00:00 19.3 12 Sur 21 Sur 0 -- -- 41
2019-05-31 08:00:00 15.1 17 Sur 22 Sur 0 -- -- 48
2019-05-31 07:00:00 13.7 12 Sudeste 19 Sudeste 0 -- -- 48
2019-05-31 06:00:00 13.9 10 Sudeste 15 Sudeste 0 -- -- 48
2019-05-31 05:00:00 18.7 14 Este 19 Este 0 -- -- 35
2019-05-31 04:00:00 19.2 14 Este 28 Este 0 -- -- 35
2019-05-31 03:00:00 20 18 Este 34 Este 0 -- -- 33
2019-05-31 02:00:00 19.9 22 Sudeste 33 Este 0 -- -- 34
2019-05-31 01:00:00 20.2 20 Este 29 Este 0 -- -- 35
2019-05-31 00:00:00 19.5 14 Este 20 Este 0 -- -- 33
2019-05-30 23:00:00 19.3 13 Este 15 Este 0 -- -- 33
2019-05-30 22:00:00 20.3 11 Este 15 Este 0 -- -- 33
2019-05-30 21:00:00 24.6 11 Nordeste 22 Nordeste 0 -- -- 25
2019-05-30 20:00:00 26 15 Nordeste 26 Nordeste 0 -- -- 21
2019-05-30 19:00:00 26.5 16 Nordeste 30 Este 0 -- -- 19
2019-05-30 18:00:00 26.8 16 Nordeste 32 Nordeste 0 -- -- 19
2019-05-30 17:00:00 26.7 14 Nordeste 35 Norte 0 -- -- 21
2019-05-30 16:00:00 26.3 13 Nordeste 32 Nordeste 0 -- -- 23
2019-05-30 15:00:00 25.3 13 Este 29 Nordeste 0 -- -- 24
2019-05-30 14:00:00 24.3 16 Nordeste 32 Este 0 -- -- 25
2019-05-30 13:00:00 23 15 Nordeste 24 Nordeste 0 -- -- 31
2019-05-30 12:00:00 21.4 17 Este 32 Nordeste 0 -- -- 35
2019-05-30 11:00:00 20.2 18 Nordeste 29 Este 0 -- -- 38
2019-05-30 10:00:00 18.5 17 Nordeste 30 Este 0 -- -- 43
2019-05-30 09:00:00 17.3 20 Este 28 Nordeste 0 -- -- 43
2019-05-30 08:00:00 14.9 14 Este 20 Este 0 -- -- 46
2019-05-30 07:00:00 14.3 12 Este 19 Este 0 -- -- 43
2019-05-30 06:00:00 15.5 14 Este 22 Este 0 -- -- 39
2019-05-30 05:00:00 15.9 13 Sudeste 23 Este 0 -- -- 41
2019-05-30 04:00:00 16.3 15 Este 26 Este 0 -- -- 37
2019-05-30 03:00:00 15.5 16 Este 31 Este 0 -- -- 42
2019-05-30 02:00:00 15.5 20 Este 34 Este 0 -- -- 49
2019-05-30 01:00:00 16 24 Este 34 Este 0 -- -- 44
2019-05-30 00:00:00 15.5 21 Este 31 Este 0 -- -- 46
2019-05-29 23:00:00 16.1 20 Este 29 Nordeste 0 -- -- 45
2019-05-29 22:00:00 17.9 19 Nordeste 32 Nordeste 0 -- -- 42
2019-05-29 21:00:00 20.3 23 Nordeste 35 Nordeste 0 -- -- 35
2019-05-29 20:00:00 21.7 24 Nordeste 40 Nordeste 0 -- -- 33
2019-05-29 19:00:00 22.4 26 Nordeste 39 Norte 0 -- -- 33
2019-05-29 18:00:00 22.5 23 Nordeste 38 Nordeste 0 -- -- 33
2019-05-29 17:00:00 22.3 24 Nordeste 37 Nordeste 0 -- -- 35
2019-05-29 16:00:00 21.6 23 Nordeste 41 Nordeste 0 -- -- 32
2019-05-29 15:00:00 20.7 23 Nordeste 38 Nordeste 0 -- -- 36
2019-05-29 14:00:00 19.5 24 Este 35 Nordeste 0 -- -- 38
2019-05-29 13:00:00 18.1 20 Este 34 Nordeste 0 -- -- 43
2019-05-29 12:00:00 16.3 23 Nordeste 38 Nordeste 0 -- -- 45
2019-05-29 11:00:00 14.5 22 Nordeste 40 Nordeste 0 -- -- 49
2019-05-29 10:00:00 12.7 27 Este 44 Nordeste 0 -- -- 54
2019-05-29 09:00:00 11 29 Este 42 Este 0 -- -- 57
2019-05-29 08:00:00 9.6 29 Este 43 Este 0 -- -- 60
2019-05-29 07:00:00 9.1 22 Este 35 Este 0 -- -- 60
2019-05-29 06:00:00 10.3 21 Este 37 Este 0 -- -- 54
2019-05-29 05:00:00 10.5 24 Este 37 Este 0 -- -- 51
2019-05-29 04:00:00 11.1 25 Este 40 Este 0 -- -- 49
2019-05-29 03:00:00 11.4 24 Este 36 Este 0 -- -- 50
2019-05-29 02:00:00 11.3 18 Este 32 Nordeste 0 -- -- 58
2019-05-29 01:00:00 12.5 17 Este 30 Este 0 -- -- 55
2019-05-29 00:00:00 14.1 13 Este 29 Nordeste 0 -- -- 45
2019-05-28 23:00:00 14.8 14 Este 18 Este 0 -- -- 42
2019-05-28 22:00:00 16.2 7 Nordeste 23 Nordeste 0 -- -- 41
2019-05-28 21:00:00 19.7 17 Nordeste 31 Nordeste 0 -- -- 33
2019-05-28 20:00:00 20.9 19 Nordeste 33 Nordeste 0 -- -- 29
2019-05-28 19:00:00 21.7 19 Norte 35 Nordeste 0 -- -- 31
2019-05-28 18:00:00 21.8 20 Nordeste 35 Nordeste 0 -- -- 31
2019-05-28 17:00:00 21.7 19 Norte 32 Norte 0 -- -- 29
2019-05-28 16:00:00 21.2 18 Nordeste 36 Nordeste 0 -- -- 29
2019-05-28 15:00:00 19.9 18 Nordeste 35 Nordeste 0 -- -- 30
2019-05-28 14:00:00 18.7 22 Nordeste 38 Nordeste 0 -- -- 36
2019-05-28 13:00:00 17.3 23 Nordeste 36 Nordeste 0 -- -- 34
2019-05-28 12:00:00 16.7 22 Nordeste 31 Nordeste 0 -- -- 39
2019-05-28 11:00:00 15.3 21 Nordeste 30 Nordeste 0 -- -- 46
2019-05-28 10:00:00 13.5 20 Nordeste 29 Nordeste 0 -- -- 61
2019-05-28 09:00:00 13.6 15 Nordeste 19 Este 0 -- -- 65
2019-05-28 08:00:00 8.8 15 Este 20 Este 0 -- -- 83
2019-05-28 07:00:00 8.1 12 Nordeste 18 Nordeste 0 -- -- 87
2019-05-28 06:00:00 9.8 13 Nordeste 19 Nordeste 0 -- -- 83
2019-05-28 05:00:00 10.6 15 Este 22 Este 0 -- -- 81
2019-05-28 04:00:00 11.5 16 Este 21 Este 0 -- -- 78
2019-05-28 03:00:00 12 9 Este 17 Nordeste 0 -- -- 74
2019-05-28 02:00:00 11.3 7 Este 10 Este 0 -- -- 78
2019-05-28 01:00:00 13.2 6 Sur 15 Sur 0 -- -- 68
2019-05-28 00:00:00 13.9 7 Sur 14 Sur 0 -- -- 64
2019-05-27 23:00:00 14.8 7 Sur 13 Sur 0 -- -- 59
2019-05-27 22:00:00 17.1 4 Sur 16 Noroeste 0 -- -- 53
2019-05-27 21:00:00 20.9 10 Noroeste 25 Noroeste 0 -- -- 43
2019-05-27 20:00:00 22.1 15 Noroeste 26 Noroeste 0 -- -- 40
2019-05-27 19:00:00 23.2 12 Noroeste 25 Noroeste 0 -- -- 36
2019-05-27 18:00:00 23.4 15 Oeste 30 Oeste 0 -- -- 38
2019-05-27 17:00:00 23.2 12 Noroeste 31 Oeste 0 -- -- 41
2019-05-27 16:00:00 22.9 15 Noroeste 32 Noroeste 0 -- -- 43
2019-05-27 15:00:00 22.7 13 Noroeste 31 Norte 0 -- -- 41
2019-05-27 14:00:00 22.3 14 Noroeste 31 Noroeste 0 -- -- 40
2019-05-27 13:00:00 22 12 Norte 23 Norte 0 -- -- 43
2019-05-27 12:00:00 20.8 10 Nordeste 20 Nordeste 0 -- -- 41
2019-05-27 11:00:00 19.1 16 Nordeste 26 Nordeste 0 -- -- 46
2019-05-27 10:00:00 17.3 11 Nordeste 19 Este 0 -- -- 54
2019-05-27 09:00:00 14.9 3 Sur 9 Sur 0 -- -- 69
2019-05-27 08:00:00 10.8 8 Sur 14 Sur 0 -- -- 83
2019-05-27 07:00:00 10 11 Sur 13 Sur 0 -- -- 83
2019-05-27 06:00:00 12.1 10 Sudoeste 15 Sudoeste 0 -- -- 75
2019-05-27 05:00:00 11.4 8 Sudoeste 14 Sur 0 -- -- 75
2019-05-27 04:00:00 12.3 9 Sudoeste 15 Sudoeste 0 -- -- 70
2019-05-27 03:00:00 12.2 12 Sur 15 Sur 0 -- -- 69
2019-05-27 02:00:00 13.1 10 Sur 15 Sudoeste 0 -- -- 65
2019-05-27 01:00:00 13.5 11 Sur 15 Sur 0 -- -- 64
2019-05-27 00:00:00 15.3 5 Sur 20 Sur 0 -- -- 58
2019-05-26 23:00:00 15.1 18 Sur 20 Sur 0 -- -- 54
2019-05-26 22:00:00 17.2 6 Sudeste 17 Nordeste 0 -- -- 50
2019-05-26 21:00:00 22.2 11 Norte 25 Norte 0 -- -- 35
2019-05-26 20:00:00 23.4 16 Norte 34 Norte 0 -- -- 32
2019-05-26 19:00:00 23.8 17 Norte 35 Norte 0 -- -- 33
2019-05-26 18:00:00 23.8 16 Norte 35 Norte 0 -- -- 35
2019-05-26 17:00:00 23.3 17 Norte 32 Norte 0 -- -- 35
2019-05-26 16:00:00 22.4 18 Norte 34 Norte 0 -- -- 38
2019-05-26 15:00:00 21 18 Nordeste 39 Nordeste 0 -- -- 40
2019-05-26 14:00:00 20.2 16 Nordeste 32 Norte 0 -- -- 43
2019-05-26 13:00:00 19 19 Nordeste 32 Norte 0 -- -- 46
2019-05-26 12:00:00 17.1 20 Nordeste 36 Nordeste 0 -- -- 52
2019-05-26 11:00:00 15.4 17 Nordeste 33 Este 0 -- -- 57
2019-05-26 10:00:00 13.8 22 Este 33 Este 0 -- -- 61
2019-05-26 09:00:00 12 23 Este 33 Este 0 -- -- 64
2019-05-26 08:00:00 10.6 21 Este 33 Este 0 -- -- 65
2019-05-26 07:00:00 9.7 17 Este 30 Este 0 -- -- 64
2019-05-26 06:00:00 9.7 19 Este 29 Este 0 -- -- 57
2019-05-26 05:00:00 10.6 17 Este 30 Este 0 -- -- 49
2019-05-26 04:00:00 11.5 15 Este 27 Este 0 -- -- 52
2019-05-26 03:00:00 12.4 16 Este 28 Este 0 -- -- 54
2019-05-26 02:00:00 12.9 14 Este 23 Este 0 -- -- 54
2019-05-26 01:00:00 14.1 16 Este 23 Este 0 -- -- 49
2019-05-26 00:00:00 13.7 12 Este 19 Este 0 -- -- 47
2019-05-25 23:00:00 13.8 11 Este 15 Este 0 -- -- 47
2019-05-25 22:00:00 15.1 9 Este 24 Nordeste 0 -- -- 46
2019-05-25 21:00:00 18.4 17 Nordeste 28 Nordeste 0 -- -- 37
2019-05-25 20:00:00 19.3 23 Nordeste 33 Nordeste 0 -- -- 34
2019-05-25 19:00:00 20.2 18 Norte 35 Nordeste 0 -- -- 32
2019-05-25 18:00:00 20.3 21 Nordeste 35 Nordeste 0 -- -- 34
2019-05-25 17:00:00 19.5 23 Nordeste 36 Nordeste 0 -- -- 35
2019-05-25 16:00:00 19.1 21 Nordeste 34 Norte 0 -- -- 40
2019-05-25 15:00:00 18.2 23 Nordeste 40 Nordeste 0 -- -- 39
2019-05-25 14:00:00 17.1 26 Nordeste 41 Nordeste 0 -- -- 47
2019-05-25 13:00:00 15.7 26 Nordeste 45 Nordeste 0 -- -- 51
2019-05-25 12:00:00 14.3 29 Nordeste 44 Este 0 -- -- 56
2019-05-25 11:00:00 12.8 31 Este 44 Nordeste 0 -- -- 60
2019-05-25 10:00:00 11.4 31 Nordeste 49 Nordeste 0 -- -- 66
2019-05-25 09:00:00 10 27 Este 42 Este 0 -- -- 73
2019-05-25 08:00:00 8.1 22 Nordeste 32 Este 0 -- -- 83
2019-05-25 07:00:00 7 19 Este 31 Este 0 -- -- 87
2019-05-25 06:00:00 7.1 22 Este 31 Este 0 -- -- 88
2019-05-25 05:00:00 7.5 18 Este 39 Este 0 -- -- 84
2019-05-25 04:00:00 8.4 26 Este 42 Este 0 -- -- 80
2019-05-25 03:00:00 8.8 26 Este 39 Este 0 -- -- 75
2019-05-25 02:00:00 9.9 21 Este 37 Este 0 -- -- 67
2019-05-25 01:00:00 11.2 22 Este 40 Este 0 -- -- 60
2019-05-25 00:00:00 12.9 23 Nordeste 37 Este 0 -- -- 54